createdAt,value
2018-12-06T00:00:24.390Z,998.30
2018-12-06T00:01:30.507Z,998.29
2018-12-06T00:02:36.611Z,998.29
2018-12-06T00:03:42.736Z,998.28
2018-12-06T00:04:48.844Z,998.25
2018-12-06T00:05:54.977Z,998.20
2018-12-06T00:07:01.067Z,998.19
2018-12-06T00:08:07.257Z,998.18
2018-12-06T00:09:13.303Z,998.20
2018-12-06T00:10:19.416Z,998.17
2018-12-06T00:11:25.530Z,998.17
2018-12-06T00:12:31.652Z,998.18
2018-12-06T00:13:37.749Z,998.15
2018-12-06T00:14:43.875Z,998.16
2018-12-06T00:15:49.992Z,998.20
2018-12-06T00:16:56.093Z,998.17
2018-12-06T00:18:02.212Z,998.14
2018-12-06T00:19:08.337Z,998.15
2018-12-06T00:20:14.453Z,998.18
2018-12-06T00:21:20.563Z,998.19
2018-12-06T00:22:26.669Z,998.11
2018-12-06T00:23:32.784Z,998.18
2018-12-06T00:24:38.904Z,998.13
2018-12-06T00:25:45.009Z,998.15
2018-12-06T00:26:51.135Z,998.09
2018-12-06T00:27:57.242Z,998.12
2018-12-06T00:29:03.355Z,998.12
2018-12-06T00:30:09.466Z,998.08
2018-12-06T00:31:15.593Z,998.13
2018-12-06T00:32:21.709Z,998.09
2018-12-06T00:33:27.799Z,998.15
2018-12-06T00:34:33.922Z,998.11
2018-12-06T00:35:40.032Z,998.12
2018-12-06T00:36:47.145Z,998.12
2018-12-06T00:37:52.262Z,998.12
2018-12-06T00:38:58.371Z,998.14
2018-12-06T00:40:04.482Z,998.11
2018-12-06T00:41:10.589Z,998.17
2018-12-06T00:42:16.710Z,998.19
2018-12-06T00:43:22.811Z,998.22
2018-12-06T00:44:28.918Z,998.23
2018-12-06T00:45:35.046Z,998.26
2018-12-06T00:46:41.167Z,998.22
2018-12-06T00:47:47.258Z,998.23
2018-12-06T00:48:53.372Z,998.22
2018-12-06T00:49:59.490Z,998.23
2018-12-06T00:51:05.598Z,998.29
2018-12-06T00:52:11.721Z,998.30
2018-12-06T00:53:17.824Z,998.30
2018-12-06T00:54:23.942Z,998.29
2018-12-06T00:55:30.242Z,998.30
2018-12-06T00:56:36.151Z,998.30
2018-12-06T00:57:42.282Z,998.33
2018-12-06T00:58:48.387Z,998.31
2018-12-06T00:59:54.502Z,998.36
2018-12-06T01:01:00.611Z,998.32
2018-12-06T01:02:06.733Z,998.35
2018-12-06T01:03:12.836Z,998.37
2018-12-06T01:04:18.947Z,998.35
2018-12-06T01:05:25.056Z,998.37
2018-12-06T01:06:31.177Z,998.44
2018-12-06T01:07:37.289Z,998.40
2018-12-06T01:08:43.404Z,998.37
2018-12-06T01:09:49.522Z,998.37
2018-12-06T01:10:55.625Z,998.39
2018-12-06T01:12:01.741Z,998.40
2018-12-06T01:13:07.854Z,998.39
2018-12-06T01:14:13.962Z,998.34
2018-12-06T01:15:20.071Z,998.33
2018-12-06T01:16:26.181Z,998.33
2018-12-06T01:17:32.306Z,998.29
2018-12-06T01:18:38.399Z,998.31
2018-12-06T01:19:44.510Z,998.30
2018-12-06T01:20:50.621Z,998.34
2018-12-06T01:21:56.731Z,998.37
2018-12-06T01:23:02.856Z,998.34
2018-12-06T01:24:08.959Z,998.33
2018-12-06T01:25:15.088Z,998.29
2018-12-06T01:26:21.172Z,998.27
2018-12-06T01:27:27.286Z,998.26
2018-12-06T01:28:33.400Z,998.24
2018-12-06T01:29:39.495Z,998.21
2018-12-06T01:30:45.610Z,998.27
2018-12-06T01:31:51.726Z,998.28
2018-12-06T01:32:57.833Z,998.24
2018-12-06T01:34:03.940Z,998.23
2018-12-06T01:35:10.048Z,998.22
2018-12-06T01:36:16.164Z,998.20
2018-12-06T01:37:22.277Z,998.23
2018-12-06T01:38:28.389Z,998.18
2018-12-06T01:39:34.497Z,998.22
2018-12-06T01:40:40.620Z,998.23
2018-12-06T01:41:46.712Z,998.19
2018-12-06T01:42:52.829Z,998.19
2018-12-06T01:43:58.936Z,998.17
2018-12-06T01:45:05.053Z,998.17
2018-12-06T01:46:11.169Z,998.14
2018-12-06T01:47:17.266Z,998.13
2018-12-06T01:48:23.389Z,998.12
2018-12-06T01:49:29.489Z,998.03
2018-12-06T01:50:35.613Z,997.97
2018-12-06T01:51:41.726Z,997.92
2018-12-06T01:52:47.832Z,997.92
2018-12-06T01:53:53.953Z,997.93
2018-12-06T01:55:00.069Z,997.92
2018-12-06T01:56:06.164Z,997.94
2018-12-06T01:57:12.287Z,997.89
2018-12-06T01:58:18.408Z,997.96
2018-12-06T01:59:24.515Z,997.99
2018-12-06T02:00:30.624Z,997.99
2018-12-06T02:01:36.800Z,998.00
2018-12-06T02:02:42.851Z,997.95
2018-12-06T02:03:48.962Z,997.99
2018-12-06T02:04:55.071Z,998.03
2018-12-06T02:06:01.191Z,997.98
2018-12-06T02:07:07.298Z,997.94
2018-12-06T02:08:13.417Z,997.87
2018-12-06T02:09:19.531Z,997.92
2018-12-06T02:10:25.632Z,997.92
2018-12-06T02:11:31.751Z,997.94
2018-12-06T02:12:37.862Z,997.97
2018-12-06T02:13:43.974Z,997.94
2018-12-06T02:14:50.089Z,997.96
2018-12-06T02:15:56.210Z,997.94
2018-12-06T02:17:02.308Z,997.93
2018-12-06T02:18:08.429Z,997.91
2018-12-06T02:19:14.561Z,997.94
2018-12-06T02:20:20.658Z,997.97
2018-12-06T02:21:26.778Z,997.96
2018-12-06T02:22:32.878Z,997.97
2018-12-06T02:23:39.006Z,997.92
2018-12-06T02:24:45.118Z,997.95
2018-12-06T02:25:51.236Z,997.96
2018-12-06T02:26:57.346Z,997.92
2018-12-06T02:28:03.455Z,997.94
2018-12-06T02:29:09.593Z,997.94
2018-12-06T02:30:15.704Z,997.96
2018-12-06T02:31:21.807Z,997.98
2018-12-06T02:32:27.924Z,997.93
2018-12-06T02:33:34.043Z,997.94
2018-12-06T02:34:40.164Z,997.93
2018-12-06T02:35:46.279Z,997.99
2018-12-06T02:36:52.389Z,997.99
2018-12-06T02:37:58.516Z,997.96
2018-12-06T02:39:04.616Z,997.94
2018-12-06T02:40:10.749Z,997.97
2018-12-06T02:41:17.853Z,997.97
2018-12-06T02:42:22.971Z,997.95
2018-12-06T02:43:29.274Z,998.01
2018-12-06T02:44:35.206Z,998.01
2018-12-06T02:45:41.319Z,997.96
2018-12-06T02:46:47.440Z,997.96
2018-12-06T02:47:53.543Z,997.90
2018-12-06T02:49:00.666Z,997.90
2018-12-06T02:50:05.791Z,997.86
2018-12-06T02:51:11.890Z,997.82
2018-12-06T02:52:18.015Z,997.85
2018-12-06T02:53:24.129Z,997.93
2018-12-06T02:54:30.238Z,997.94
2018-12-06T02:55:36.371Z,997.88
2018-12-06T02:56:42.572Z,997.87
2018-12-06T02:57:48.583Z,997.84
2018-12-06T02:58:54.698Z,997.81
2018-12-06T03:00:00.836Z,997.81
2018-12-06T03:01:06.944Z,997.80
2018-12-06T03:02:13.054Z,997.84
2018-12-06T03:03:19.168Z,997.88
2018-12-06T03:04:25.289Z,997.82
2018-12-06T03:05:31.401Z,997.77
2018-12-06T03:06:37.507Z,997.74
2018-12-06T03:07:43.640Z,997.80
2018-12-06T03:08:49.755Z,997.79
2018-12-06T03:09:55.876Z,997.72
2018-12-06T03:11:01.994Z,997.79
2018-12-06T03:12:08.104Z,997.76
2018-12-06T03:13:14.216Z,997.77
2018-12-06T03:14:20.346Z,997.77
2018-12-06T03:15:26.454Z,997.74
2018-12-06T03:16:32.566Z,997.71
2018-12-06T03:17:38.680Z,997.67
2018-12-06T03:18:44.801Z,997.69
2018-12-06T03:19:50.932Z,997.62
2018-12-06T03:20:57.051Z,997.60
2018-12-06T03:22:03.147Z,997.58
2018-12-06T03:23:09.261Z,997.55
2018-12-06T03:24:15.365Z,997.53
2018-12-06T03:25:21.490Z,997.51
2018-12-06T03:26:27.608Z,997.53
2018-12-06T03:27:33.727Z,997.53
2018-12-06T03:28:39.845Z,997.50
2018-12-06T03:29:45.957Z,997.54
2018-12-06T03:30:52.078Z,997.52
2018-12-06T03:31:58.217Z,997.54
2018-12-06T03:33:04.321Z,997.55
2018-12-06T03:34:10.422Z,997.57
2018-12-06T03:35:16.545Z,997.54
2018-12-06T03:36:22.653Z,997.53
2018-12-06T03:37:29.779Z,997.59
2018-12-06T03:38:34.894Z,997.61
2018-12-06T03:39:41.011Z,997.60
2018-12-06T03:40:47.128Z,997.60
2018-12-06T03:41:53.247Z,997.64
2018-12-06T03:42:59.351Z,997.63
2018-12-06T03:44:05.483Z,997.60
2018-12-06T03:45:11.596Z,997.64
2018-12-06T03:46:17.717Z,997.61
2018-12-06T03:47:23.839Z,997.63
2018-12-06T03:48:29.960Z,997.64
2018-12-06T03:49:36.062Z,997.59
2018-12-06T03:50:42.188Z,997.56
2018-12-06T03:51:48.301Z,997.51
2018-12-06T03:52:54.410Z,997.49
2018-12-06T03:54:00.555Z,997.53
2018-12-06T03:55:06.665Z,997.53
2018-12-06T03:56:12.769Z,997.56
2018-12-06T03:57:18.896Z,997.61
2018-12-06T03:58:25.017Z,997.58
2018-12-06T03:59:31.130Z,997.59
2018-12-06T04:00:37.258Z,997.58
2018-12-06T04:01:43.379Z,997.53
2018-12-06T04:02:49.504Z,997.59
2018-12-06T04:03:55.617Z,997.59
2018-12-06T04:05:01.873Z,997.58
2018-12-06T04:06:07.852Z,997.58
2018-12-06T04:07:13.975Z,997.56
2018-12-06T04:08:20.088Z,997.58
2018-12-06T04:09:26.207Z,997.60
2018-12-06T04:10:32.316Z,997.64
2018-12-06T04:11:38.441Z,997.69
2018-12-06T04:12:44.559Z,997.71
2018-12-06T04:13:50.680Z,997.74
2018-12-06T04:14:56.792Z,997.75
2018-12-06T04:16:02.921Z,997.74
2018-12-06T04:17:09.033Z,997.73
2018-12-06T04:18:15.166Z,997.74
2018-12-06T04:19:21.272Z,997.72
2018-12-06T04:20:27.397Z,997.71
2018-12-06T04:21:33.517Z,997.70
2018-12-06T04:22:39.668Z,997.72
2018-12-06T04:23:45.757Z,997.70
2018-12-06T04:24:51.878Z,997.74
2018-12-06T04:25:59.000Z,997.75
2018-12-06T04:27:04.142Z,997.73
2018-12-06T04:28:10.327Z,997.74
2018-12-06T04:29:16.357Z,997.71
2018-12-06T04:30:22.480Z,997.75
2018-12-06T04:31:28.599Z,997.73
2018-12-06T04:32:34.722Z,997.75
2018-12-06T04:33:40.846Z,997.72
2018-12-06T04:34:46.964Z,997.77
2018-12-06T04:35:53.077Z,997.72
2018-12-06T04:36:59.204Z,997.75
2018-12-06T04:38:05.338Z,997.72
2018-12-06T04:39:11.443Z,997.71
2018-12-06T04:40:17.579Z,997.67
2018-12-06T04:41:23.697Z,997.66
2018-12-06T04:42:29.809Z,997.66
2018-12-06T04:43:35.940Z,997.68
2018-12-06T04:44:42.060Z,997.69
2018-12-06T04:45:48.187Z,997.65
2018-12-06T04:46:54.309Z,997.61
2018-12-06T04:48:00.573Z,997.64
2018-12-06T04:49:06.589Z,997.69
2018-12-06T04:50:12.669Z,997.70
2018-12-06T04:51:18.796Z,997.68
2018-12-06T04:52:24.922Z,997.71
2018-12-06T04:53:31.052Z,997.74
2018-12-06T04:54:37.157Z,997.70
2018-12-06T04:55:43.293Z,997.76
2018-12-06T04:56:49.421Z,997.78
2018-12-06T04:57:55.530Z,997.77
2018-12-06T04:59:01.656Z,997.78
2018-12-06T05:00:07.777Z,997.78
2018-12-06T05:01:13.901Z,997.78
2018-12-06T05:02:20.028Z,997.80
2018-12-06T05:03:26.156Z,997.81
2018-12-06T05:04:32.270Z,997.86
2018-12-06T05:05:38.394Z,997.84
2018-12-06T05:06:44.516Z,997.84
2018-12-06T05:07:50.640Z,997.83
2018-12-06T05:08:56.773Z,997.79
2018-12-06T05:10:02.888Z,997.82
2018-12-06T05:11:09.014Z,997.86
2018-12-06T05:12:15.136Z,997.80
2018-12-06T05:13:21.263Z,997.81
2018-12-06T05:14:27.388Z,997.77
2018-12-06T05:15:33.502Z,997.76
2018-12-06T05:16:39.638Z,997.73
2018-12-06T05:17:45.754Z,997.71
2018-12-06T05:18:51.886Z,997.75
2018-12-06T05:19:58.012Z,997.70
2018-12-06T05:21:04.133Z,997.78
2018-12-06T05:22:10.257Z,997.73
2018-12-06T05:23:16.381Z,997.78
2018-12-06T05:24:22.524Z,997.79
2018-12-06T05:25:28.650Z,997.79
2018-12-06T05:26:34.771Z,997.77
2018-12-06T05:27:40.889Z,997.76
2018-12-06T05:28:47.015Z,997.72
2018-12-06T05:29:53.157Z,997.71
2018-12-06T05:30:59.269Z,997.68
2018-12-06T05:32:05.392Z,997.67
2018-12-06T05:33:11.528Z,997.67
2018-12-06T05:34:17.655Z,997.68
2018-12-06T05:35:23.783Z,997.66
2018-12-06T05:36:29.917Z,997.69
2018-12-06T05:37:36.029Z,997.67
2018-12-06T05:38:42.170Z,997.64
2018-12-06T05:39:48.296Z,997.63
2018-12-06T05:40:54.425Z,997.64
2018-12-06T05:42:00.549Z,997.71
2018-12-06T05:43:06.680Z,997.65
2018-12-06T05:44:12.821Z,997.68
2018-12-06T05:45:19.946Z,997.64
2018-12-06T05:46:25.067Z,997.64
2018-12-06T05:47:31.217Z,997.65
2018-12-06T05:48:37.331Z,997.67
2018-12-06T05:49:43.472Z,997.73
2018-12-06T05:50:49.616Z,997.75
2018-12-06T05:51:55.732Z,997.82
2018-12-06T05:53:01.960Z,997.75
2018-12-06T05:54:08.447Z,997.79
2018-12-06T05:55:14.146Z,997.82
2018-12-06T05:56:20.255Z,997.82
2018-12-06T05:57:26.388Z,997.88
2018-12-06T05:58:32.529Z,997.86
2018-12-06T05:59:38.642Z,997.87
2018-12-06T06:00:44.782Z,997.87
2018-12-06T06:01:50.914Z,997.85
2018-12-06T06:02:57.046Z,997.87
2018-12-06T06:04:03.178Z,997.86
2018-12-06T06:05:09.320Z,997.84
2018-12-06T06:06:15.441Z,997.86
2018-12-06T06:07:21.590Z,997.86
2018-12-06T06:08:27.691Z,997.85
2018-12-06T06:09:33.836Z,997.87
2018-12-06T06:10:39.973Z,997.86
2018-12-06T06:11:46.088Z,997.87
2018-12-06T06:12:52.592Z,997.87
2018-12-06T06:13:58.350Z,997.88
2018-12-06T06:15:04.488Z,997.88
2018-12-06T06:16:10.625Z,997.86
2018-12-06T06:17:16.750Z,997.87
2018-12-06T06:18:22.905Z,997.87
2018-12-06T06:19:29.014Z,997.88
2018-12-06T06:20:35.145Z,997.93
2018-12-06T06:21:41.278Z,997.99
2018-12-06T06:22:47.408Z,998.05
2018-12-06T06:23:53.540Z,998.08
2018-12-06T06:24:59.671Z,998.14
2018-12-06T06:26:05.805Z,998.12
2018-12-06T06:27:11.944Z,998.19
2018-12-06T06:28:18.064Z,998.18
2018-12-06T06:29:24.201Z,998.18
2018-12-06T06:30:30.341Z,998.16
2018-12-06T06:31:36.574Z,998.11
2018-12-06T06:32:42.602Z,998.12
2018-12-06T06:33:48.738Z,998.10
2018-12-06T06:34:54.876Z,998.03
2018-12-06T06:36:01.001Z,998.13
2018-12-06T06:37:07.140Z,998.13
2018-12-06T06:38:13.274Z,998.14
2018-12-06T06:39:19.404Z,998.19
2018-12-06T06:40:25.545Z,998.18
2018-12-06T06:41:31.673Z,998.26
2018-12-06T06:42:37.813Z,998.31
2018-12-06T06:43:43.943Z,998.32
2018-12-06T06:44:50.068Z,998.31
2018-12-06T06:45:56.214Z,998.34
2018-12-06T06:47:02.355Z,998.37
2018-12-06T06:48:08.599Z,998.39
2018-12-06T06:49:14.622Z,998.47
2018-12-06T06:50:20.760Z,998.53
2018-12-06T06:51:26.909Z,998.57
2018-12-06T06:52:33.046Z,998.61
2018-12-06T06:53:39.166Z,998.62
2018-12-06T06:54:45.317Z,998.65
2018-12-06T06:55:51.451Z,998.64
2018-12-06T06:56:57.601Z,998.64
2018-12-06T06:58:03.734Z,998.66
2018-12-06T06:59:09.881Z,998.67
2018-12-06T07:00:16.020Z,998.68
2018-12-06T07:01:22.166Z,998.64
2018-12-06T07:02:28.304Z,998.66
2018-12-06T07:03:34.448Z,998.67
2018-12-06T07:04:40.587Z,998.72
2018-12-06T07:05:46.727Z,998.73
2018-12-06T07:06:53.068Z,998.79
2018-12-06T07:07:59.020Z,998.71
2018-12-06T07:09:05.165Z,998.73
2018-12-06T07:10:11.297Z,998.70
2018-12-06T07:11:18.444Z,998.72
2018-12-06T07:12:23.607Z,998.74
2018-12-06T07:13:29.745Z,998.76
2018-12-06T07:14:35.892Z,998.79
2018-12-06T07:15:42.037Z,998.78
2018-12-06T07:16:48.184Z,998.80
2018-12-06T07:17:54.334Z,998.85
2018-12-06T07:19:00.579Z,998.90
2018-12-06T07:20:06.618Z,998.92
2018-12-06T07:21:13.766Z,998.97
2018-12-06T07:22:18.917Z,999.01
2018-12-06T07:23:25.065Z,998.98
2018-12-06T07:24:31.208Z,998.95
2018-12-06T07:25:37.357Z,998.94
2018-12-06T07:26:43.595Z,998.93
2018-12-06T07:27:49.664Z,998.87
2018-12-06T07:28:55.811Z,998.89
2018-12-06T07:30:01.957Z,998.90
2018-12-06T07:31:08.108Z,998.84
2018-12-06T07:32:14.258Z,998.86
2018-12-06T07:33:20.418Z,998.79
2018-12-06T07:34:26.582Z,998.82
2018-12-06T07:35:32.721Z,998.77
2018-12-06T07:36:38.870Z,998.76
2018-12-06T07:37:45.038Z,998.74
2018-12-06T07:38:51.182Z,998.75
2018-12-06T07:39:57.344Z,998.71
2018-12-06T07:41:03.488Z,998.73
2018-12-06T07:42:10.097Z,998.81
2018-12-06T07:43:15.799Z,998.80
2018-12-06T07:44:21.945Z,998.86
2018-12-06T07:45:28.106Z,998.92
2018-12-06T07:46:34.259Z,998.92
2018-12-06T07:47:40.418Z,998.97
2018-12-06T07:48:46.572Z,999.04
2018-12-06T07:49:52.722Z,999.06
2018-12-06T07:50:58.883Z,999.06
2018-12-06T07:52:05.046Z,999.11
2018-12-06T07:53:11.197Z,999.07
2018-12-06T07:54:17.351Z,999.08
2018-12-06T07:55:23.500Z,999.05
2018-12-06T07:56:29.665Z,999.10
2018-12-06T07:57:35.813Z,999.09
2018-12-06T07:58:42.000Z,999.07
2018-12-06T07:59:48.138Z,999.08
2018-12-06T08:00:54.288Z,999.09
2018-12-06T08:02:00.568Z,999.11
2018-12-06T08:03:06.610Z,999.15
2018-12-06T08:04:12.791Z,999.16
2018-12-06T08:05:18.931Z,999.12
2018-12-06T08:06:25.106Z,999.14
2018-12-06T08:07:31.256Z,999.13
2018-12-06T08:08:37.432Z,999.13
2018-12-06T08:09:43.576Z,999.12
2018-12-06T08:10:49.750Z,999.15
2018-12-06T08:11:55.919Z,999.17
2018-12-06T08:13:02.073Z,999.19
2018-12-06T08:14:08.240Z,999.26
2018-12-06T08:15:14.403Z,999.22
2018-12-06T08:16:20.563Z,999.28
2018-12-06T08:17:26.737Z,999.21
2018-12-06T08:18:32.894Z,999.28
2018-12-06T08:19:39.071Z,999.25
2018-12-06T08:20:45.227Z,999.24
2018-12-06T08:21:52.389Z,999.19
2018-12-06T08:22:57.564Z,999.17
2018-12-06T08:24:03.727Z,999.18
2018-12-06T08:25:09.904Z,999.15
2018-12-06T08:26:16.078Z,999.15
2018-12-06T08:27:22.281Z,999.20
2018-12-06T08:28:28.428Z,999.22
2018-12-06T08:29:34.588Z,999.25
2018-12-06T08:30:42.172Z,999.30
2018-12-06T08:31:46.934Z,999.33
2018-12-06T08:32:54.113Z,999.32
2018-12-06T08:34:05.947Z,999.36
2018-12-06T08:35:05.474Z,999.35
2018-12-06T08:36:11.648Z,999.33
2018-12-06T08:37:17.817Z,999.33
2018-12-06T08:38:23.991Z,999.31
2018-12-06T08:39:30.182Z,999.21
2018-12-06T08:40:36.357Z,999.24
2018-12-06T08:41:42.526Z,999.20
2018-12-06T08:42:48.703Z,999.17
2018-12-06T08:43:54.895Z,999.20
2018-12-06T08:45:01.087Z,999.18
2018-12-06T08:46:07.255Z,999.15
2018-12-06T08:47:14.431Z,999.17
2018-12-06T08:48:19.617Z,999.17
2018-12-06T08:49:25.800Z,999.17
2018-12-06T08:50:31.986Z,999.13
2018-12-06T08:51:38.170Z,999.10
2018-12-06T08:52:44.344Z,999.11
2018-12-06T08:53:50.516Z,999.15
2018-12-06T08:54:56.712Z,999.22
2018-12-06T08:56:02.901Z,999.27
2018-12-06T08:57:09.077Z,999.31
2018-12-06T08:58:15.258Z,999.38
2018-12-06T08:59:21.443Z,999.35
2018-12-06T09:00:27.636Z,999.30
2018-12-06T09:01:33.836Z,999.24
2018-12-06T09:02:40.020Z,999.22
2018-12-06T09:03:46.188Z,999.21
2018-12-06T09:04:52.392Z,999.20
2018-12-06T09:05:58.581Z,999.14
2018-12-06T09:07:04.757Z,999.12
2018-12-06T09:08:10.947Z,999.05
2018-12-06T09:09:17.137Z,998.98
2018-12-06T09:10:23.329Z,998.98
2018-12-06T09:11:29.515Z,999.00
2018-12-06T09:12:35.718Z,999.02
2018-12-06T09:13:41.903Z,999.03
2018-12-06T09:14:48.088Z,999.05
2018-12-06T09:15:54.287Z,999.05
2018-12-06T09:17:00.632Z,999.03
2018-12-06T09:18:06.675Z,999.03
2018-12-06T09:19:14.678Z,999.06
2018-12-06T09:20:19.065Z,999.08
2018-12-06T09:21:25.260Z,999.13
2018-12-06T09:22:32.445Z,999.11
2018-12-06T09:23:37.632Z,999.08
2018-12-06T09:24:43.829Z,999.13
2018-12-06T09:25:50.052Z,999.16
2018-12-06T09:26:59.010Z,999.10
2018-12-06T09:28:02.421Z,999.06
2018-12-06T09:29:08.608Z,999.07
2018-12-06T09:30:14.803Z,999.10
2018-12-06T09:31:21.012Z,999.10
2018-12-06T09:32:27.208Z,999.05
2018-12-06T09:33:33.409Z,998.98
2018-12-06T09:34:39.628Z,999.00
2018-12-06T09:35:45.820Z,999.00
2018-12-06T09:36:52.035Z,999.00
2018-12-06T09:37:58.232Z,999.02
2018-12-06T09:39:04.446Z,999.01
2018-12-06T09:40:10.665Z,998.98
2018-12-06T09:41:16.873Z,998.96
2018-12-06T09:42:23.080Z,998.98
2018-12-06T09:43:29.293Z,998.97
2018-12-06T09:44:35.509Z,998.96
2018-12-06T09:45:41.732Z,998.99
2018-12-06T09:46:47.937Z,998.98
2018-12-06T09:47:54.144Z,998.96
2018-12-06T09:49:00.352Z,998.96
2018-12-06T09:50:06.573Z,999.01
2018-12-06T09:51:12.790Z,998.99
2018-12-06T09:52:18.992Z,998.98
2018-12-06T09:53:25.232Z,998.94
2018-12-06T09:54:32.421Z,998.94
2018-12-06T09:55:37.649Z,998.94
2018-12-06T09:56:43.867Z,998.94
2018-12-06T09:57:50.079Z,998.97
2018-12-06T09:58:56.301Z,998.97
2018-12-06T10:00:02.636Z,998.97
2018-12-06T10:01:08.730Z,999.01
2018-12-06T10:02:14.946Z,999.02
2018-12-06T10:03:21.152Z,999.04
2018-12-06T10:04:27.369Z,999.04
2018-12-06T10:05:33.580Z,999.02
2018-12-06T10:06:39.805Z,999.02
2018-12-06T10:07:46.011Z,999.07
2018-12-06T10:08:52.220Z,999.03
2018-12-06T10:09:58.452Z,999.03
2018-12-06T10:11:04.645Z,999.05
2018-12-06T10:12:10.873Z,999.03
2018-12-06T10:13:17.088Z,999.01
2018-12-06T10:14:23.304Z,999.02
2018-12-06T10:15:29.526Z,999.04
2018-12-06T10:16:35.747Z,999.06
2018-12-06T10:17:41.971Z,998.99
2018-12-06T10:18:48.192Z,999.00
2018-12-06T10:19:54.422Z,998.99
2018-12-06T10:21:00.642Z,999.01
2018-12-06T10:22:06.883Z,998.96
2018-12-06T10:23:13.094Z,999.02
2018-12-06T10:24:19.322Z,999.00
2018-12-06T10:25:26.579Z,999.03
2018-12-06T10:26:31.796Z,999.01
2018-12-06T10:27:38.003Z,999.00
2018-12-06T10:28:44.231Z,999.01
2018-12-06T10:29:50.444Z,998.97
2018-12-06T10:30:56.678Z,998.97
2018-12-06T10:32:02.911Z,998.97
2018-12-06T10:33:09.122Z,998.94
2018-12-06T10:34:15.349Z,998.94
2018-12-06T10:35:21.571Z,998.97
2018-12-06T10:36:27.800Z,998.97
2018-12-06T10:37:34.024Z,998.96
2018-12-06T10:38:40.243Z,998.95
2018-12-06T10:39:46.573Z,998.95
2018-12-06T10:40:52.692Z,998.96
2018-12-06T10:41:58.935Z,998.97
2018-12-06T10:43:05.144Z,998.96
2018-12-06T10:44:11.375Z,999.02
2018-12-06T10:45:17.605Z,999.02
2018-12-06T10:46:23.859Z,998.99
2018-12-06T10:47:30.093Z,998.96
2018-12-06T10:48:36.313Z,998.92
2018-12-06T10:49:42.539Z,998.92
2018-12-06T10:50:48.791Z,998.92
2018-12-06T10:51:55.026Z,998.87
2018-12-06T10:53:01.266Z,998.80
2018-12-06T10:54:07.503Z,998.79
2018-12-06T10:55:13.741Z,998.77
2018-12-06T10:56:19.983Z,998.78
2018-12-06T10:57:26.235Z,998.77
2018-12-06T10:58:32.571Z,998.82
2018-12-06T10:59:38.722Z,998.80
2018-12-06T11:00:44.958Z,998.83
2018-12-06T11:01:51.212Z,998.83
2018-12-06T11:02:57.463Z,998.73
2018-12-06T11:04:03.707Z,998.70
2018-12-06T11:05:09.949Z,998.73
2018-12-06T11:06:16.196Z,998.71
2018-12-06T11:07:22.438Z,998.67
2018-12-06T11:08:28.689Z,998.69
2018-12-06T11:09:34.923Z,998.63
2018-12-06T11:10:41.170Z,998.61
2018-12-06T11:11:47.425Z,998.49
2018-12-06T11:12:53.699Z,998.49
2018-12-06T11:13:59.957Z,998.36
2018-12-06T11:15:06.226Z,998.30
2018-12-06T11:16:12.492Z,998.12
2018-12-06T11:17:18.774Z,998.03
2018-12-06T11:18:25.053Z,997.92
2018-12-06T11:19:31.343Z,997.85
2018-12-06T11:20:37.618Z,997.74
2018-12-06T11:21:43.900Z,997.68
2018-12-06T11:22:50.187Z,997.61
2018-12-06T11:23:56.578Z,997.57
2018-12-06T11:25:02.754Z,997.62
2018-12-06T11:26:09.493Z,997.66
2018-12-06T11:27:15.326Z,997.78
2018-12-06T11:28:21.608Z,997.81
2018-12-06T11:29:27.894Z,997.92
2018-12-06T11:30:34.182Z,998.00
2018-12-06T11:31:40.460Z,998.04
2018-12-06T11:32:46.761Z,998.11
2018-12-06T11:33:53.021Z,998.16
2018-12-06T11:34:59.302Z,998.26
2018-12-06T11:36:06.581Z,998.27
2018-12-06T11:37:11.852Z,998.34
2018-12-06T11:38:18.124Z,998.24
2018-12-06T11:39:24.417Z,998.28
2018-12-06T11:40:30.684Z,998.24
2018-12-06T11:41:43.057Z,998.23
2018-12-06T11:42:43.242Z,998.14
2018-12-06T11:43:49.525Z,998.18
2018-12-06T11:44:55.801Z,998.21
2018-12-06T11:46:02.074Z,998.19
2018-12-06T11:47:08.353Z,998.28
2018-12-06T11:48:14.621Z,998.25
2018-12-06T11:49:20.914Z,998.29
2018-12-06T11:50:27.178Z,998.25
2018-12-06T11:51:33.462Z,998.23
2018-12-06T11:52:39.751Z,998.07
2018-12-06T11:53:46.049Z,997.98
2018-12-06T11:54:52.320Z,997.89
2018-12-06T11:55:58.618Z,997.89
2018-12-06T11:57:05.917Z,997.82
2018-12-06T11:58:11.555Z,997.73
2018-12-06T11:59:17.510Z,997.70
2018-12-06T12:00:23.800Z,997.56
2018-12-06T12:01:30.108Z,997.57
2018-12-06T12:02:36.419Z,997.48
2018-12-06T12:03:42.722Z,997.46
2018-12-06T12:04:49.037Z,997.39
2018-12-06T12:05:58.520Z,997.32
2018-12-06T12:07:01.641Z,997.22
2018-12-06T12:08:08.962Z,997.24
2018-12-06T12:09:16.024Z,997.37
2018-12-06T12:10:20.591Z,997.54
2018-12-06T12:11:26.898Z,997.55
2018-12-06T12:12:33.220Z,997.51
2018-12-06T12:13:39.799Z,997.64
2018-12-06T12:14:45.829Z,997.82
2018-12-06T12:15:52.138Z,997.89
2018-12-06T12:16:58.440Z,997.98
2018-12-06T12:18:05.760Z,998.04
2018-12-06T12:19:11.058Z,998.11
2018-12-06T12:20:17.369Z,998.18
2018-12-06T12:21:23.676Z,998.25
2018-12-06T12:22:29.980Z,998.32
2018-12-06T12:23:36.329Z,998.33
2018-12-06T12:24:42.599Z,998.35
2018-12-06T12:25:48.884Z,998.35
2018-12-06T12:26:55.190Z,998.33
2018-12-06T12:28:01.480Z,998.33
2018-12-06T12:29:08.773Z,998.29
2018-12-06T12:30:14.082Z,998.19
2018-12-06T12:31:20.391Z,998.22
2018-12-06T12:32:26.683Z,998.24
2018-12-06T12:33:32.984Z,998.26
2018-12-06T12:34:39.287Z,998.20
2018-12-06T12:35:46.601Z,998.16
2018-12-06T12:36:51.902Z,998.03
2018-12-06T12:37:58.217Z,998.08
2018-12-06T12:39:04.513Z,998.05
2018-12-06T12:40:10.826Z,998.05
2018-12-06T12:41:17.135Z,997.90
2018-12-06T12:42:23.434Z,997.82
2018-12-06T12:43:29.750Z,997.69
2018-12-06T12:44:36.065Z,997.56
2018-12-06T12:45:42.388Z,997.35
2018-12-06T12:46:48.698Z,997.32
2018-12-06T12:47:55.020Z,997.40
2018-12-06T12:49:01.345Z,997.48
2018-12-06T12:50:07.670Z,997.54
2018-12-06T12:51:14.005Z,997.54
2018-12-06T12:52:20.330Z,997.81
2018-12-06T12:53:26.648Z,997.94
2018-12-06T12:54:32.969Z,998.16
2018-12-06T12:55:39.294Z,998.21
2018-12-06T12:56:45.596Z,998.27
2018-12-06T12:57:51.914Z,998.30
2018-12-06T12:58:58.229Z,998.31
2018-12-06T13:00:04.542Z,998.21
2018-12-06T13:01:10.862Z,998.06
2018-12-06T13:02:17.177Z,997.74
2018-12-06T13:03:23.490Z,997.62
2018-12-06T13:04:29.807Z,997.63
2018-12-06T13:05:36.136Z,997.61
2018-12-06T13:06:42.453Z,997.73
2018-12-06T13:07:48.768Z,997.92
2018-12-06T13:08:55.083Z,998.00
2018-12-06T13:10:01.394Z,998.17
2018-12-06T13:11:07.742Z,998.21
2018-12-06T13:12:14.022Z,998.32
2018-12-06T13:13:20.338Z,998.38
2018-12-06T13:14:26.630Z,998.47
2018-12-06T13:15:32.933Z,998.39
2018-12-06T13:16:39.231Z,998.44
2018-12-06T13:17:45.531Z,998.52
2018-12-06T13:18:51.832Z,998.57
2018-12-06T13:19:58.126Z,998.59
2018-12-06T13:21:04.409Z,998.62
2018-12-06T13:22:10.722Z,998.63
2018-12-06T13:23:16.995Z,998.64
2018-12-06T13:24:23.288Z,998.74
2018-12-06T13:25:29.588Z,998.76
2018-12-06T13:26:35.881Z,998.84
2018-12-06T13:27:42.154Z,998.82
2018-12-06T13:28:48.440Z,998.90
2018-12-06T13:29:54.741Z,998.86
2018-12-06T13:31:01.012Z,998.86
2018-12-06T13:32:07.294Z,998.86
2018-12-06T13:33:13.580Z,998.83
2018-12-06T13:34:19.873Z,998.81
2018-12-06T13:35:26.150Z,998.78
2018-12-06T13:36:32.425Z,998.74
2018-12-06T13:37:38.710Z,998.76
2018-12-06T13:38:44.978Z,998.77
2018-12-06T13:39:51.257Z,998.77
2018-12-06T13:40:57.538Z,998.80
2018-12-06T13:42:03.821Z,998.79
2018-12-06T13:43:10.105Z,998.73
2018-12-06T13:44:16.374Z,998.70
2018-12-06T13:45:22.860Z,998.71